createdAt,value
2023-03-18T00:02:24.417Z,5.27
2023-03-18T00:04:51.388Z,4.77
2023-03-18T00:07:18.555Z,4.70
2023-03-18T00:09:45.532Z,3.93
2023-03-18T00:12:12.721Z,3.83
2023-03-18T00:14:40.968Z,4.57
2023-03-18T00:17:08.364Z,4.20
2023-03-18T00:19:35.220Z,4.23
2023-03-18T00:22:02.302Z,4.23
2023-03-18T00:24:29.107Z,4.23
2023-03-18T00:26:56.098Z,3.20
2023-03-18T00:29:23.566Z,3.30
2023-03-18T00:31:52.391Z,2.80
2023-03-18T00:34:20.486Z,2.70
2023-03-18T00:36:51.225Z,3.47
2023-03-18T00:39:21.792Z,3.37
2023-03-18T00:41:49.060Z,2.90
2023-03-18T00:44:15.880Z,2.90
2023-03-18T00:46:43.914Z,3.07
2023-03-18T00:49:12.131Z,2.70
2023-03-18T00:51:42.202Z,3.37
2023-03-18T00:54:12.426Z,4.20
2023-03-18T00:56:40.002Z,3.17
2023-03-18T00:59:07.970Z,2.43
2023-03-18T01:01:35.665Z,2.73
2023-03-18T01:04:02.563Z,2.80
2023-03-18T01:06:34.152Z,2.60
2023-03-18T01:09:02.570Z,2.70
2023-03-18T01:11:30.085Z,2.33
2023-03-18T01:13:57.730Z,2.30
2023-03-18T01:16:25.093Z,2.33
2023-03-18T01:18:52.438Z,2.60
2023-03-18T01:21:19.633Z,2.43
2023-03-18T01:23:47.998Z,2.37
2023-03-18T01:26:15.528Z,2.47
2023-03-18T01:28:42.953Z,2.70
2023-03-18T01:31:10.109Z,2.60
2023-03-18T01:33:37.371Z,2.60
2023-03-18T01:36:05.416Z,2.10
2023-03-18T01:38:33.039Z,2.33
2023-03-18T01:41:01.757Z,2.60
2023-03-18T01:43:31.372Z,2.40
2023-03-18T01:45:59.813Z,2.43
2023-03-18T01:48:29.743Z,2.27
2023-03-18T01:51:08.677Z,2.30
2023-03-18T01:53:40.803Z,2.30
2023-03-18T01:56:09.134Z,2.20
2023-03-18T01:58:40.241Z,2.10
2023-03-18T02:01:12.966Z,2.30
2023-03-18T02:03:42.008Z,2.30
2023-03-18T02:06:10.057Z,2.43
2023-03-18T02:08:39.254Z,2.40
2023-03-18T02:11:08.302Z,2.47
2023-03-18T02:13:38.353Z,2.90
2023-03-18T02:16:12.993Z,2.70
2023-03-18T02:18:45.617Z,2.60
2023-03-18T02:21:23.940Z,2.50
2023-03-18T02:23:58.840Z,2.33
2023-03-18T02:26:33.622Z,2.70
2023-03-18T02:29:06.860Z,2.40
2023-03-18T02:31:36.755Z,2.30
2023-03-18T02:34:07.484Z,2.77
2023-03-18T02:36:36.439Z,2.67
2023-03-18T02:39:05.072Z,2.80
2023-03-18T02:41:34.605Z,2.60
2023-03-18T02:44:03.092Z,2.53
2023-03-18T02:46:36.361Z,2.70
2023-03-18T02:49:06.944Z,2.30
2023-03-18T02:51:35.527Z,2.90
2023-03-18T02:54:07.762Z,2.63
2023-03-18T02:56:34.790Z,2.80
2023-03-18T02:59:03.068Z,2.50
2023-03-18T03:01:32.315Z,2.67
2023-03-18T03:04:00.705Z,2.87
2023-03-18T03:06:27.530Z,2.50
2023-03-18T03:08:54.740Z,2.50
2023-03-18T03:11:22.884Z,2.67
2023-03-18T03:13:50.215Z,2.70
2023-03-18T03:16:19.578Z,2.87
2023-03-18T03:18:46.942Z,2.80
2023-03-18T03:21:14.833Z,2.63
2023-03-18T03:23:42.670Z,2.70
2023-03-18T03:26:10.470Z,2.87
2023-03-18T03:28:37.449Z,2.60
2023-03-18T03:31:05.061Z,2.70
2023-03-18T03:33:33.434Z,3.63
2023-03-18T03:36:00.303Z,2.40
2023-03-18T03:38:27.175Z,2.70
2023-03-18T03:40:54.412Z,3.00
2023-03-18T03:43:21.287Z,3.00
2023-03-18T03:45:49.302Z,2.63
2023-03-18T03:48:16.040Z,2.80
2023-03-18T03:50:44.718Z,2.70
2023-03-18T03:53:11.531Z,3.30
2023-03-18T03:55:38.646Z,2.67
2023-03-18T03:58:05.399Z,2.87
2023-03-18T04:00:33.970Z,2.60
2023-03-18T04:03:01.078Z,3.33
2023-03-18T04:05:28.184Z,2.67
2023-03-18T04:07:59.806Z,3.27
2023-03-18T04:10:28.358Z,2.80
2023-03-18T04:12:55.806Z,2.87
2023-03-18T04:15:23.696Z,2.97
2023-03-18T04:17:50.872Z,3.30
2023-03-18T04:20:19.035Z,3.17
2023-03-18T04:22:46.292Z,3.07
2023-03-18T04:25:15.197Z,2.93
2023-03-18T04:27:42.637Z,2.90
2023-03-18T04:30:11.525Z,3.47
2023-03-18T04:32:38.306Z,3.47
2023-03-18T04:35:06.370Z,3.83
2023-03-18T04:37:37.049Z,3.13
2023-03-18T04:40:08.390Z,3.13
2023-03-18T04:42:36.569Z,3.00
2023-03-18T04:45:05.619Z,3.10
2023-03-18T04:47:33.141Z,3.87
2023-03-18T04:50:00.150Z,3.67
2023-03-18T04:52:26.952Z,3.10
2023-03-18T04:54:54.065Z,3.70
2023-03-18T04:57:21.345Z,3.20
2023-03-18T04:59:49.891Z,3.30
2023-03-18T05:02:16.719Z,4.03
2023-03-18T05:04:44.183Z,3.37
2023-03-18T05:07:14.516Z,3.57
2023-03-18T05:09:41.825Z,3.40
2023-03-18T05:12:13.286Z,3.50
2023-03-18T05:14:40.281Z,3.43
2023-03-18T05:17:09.626Z,3.47
2023-03-18T05:19:37.201Z,3.30
2023-03-18T05:22:04.331Z,3.37
2023-03-18T05:24:31.449Z,3.87
2023-03-18T05:26:58.241Z,4.20
2023-03-18T05:29:25.371Z,3.63
2023-03-18T05:31:52.148Z,3.80
2023-03-18T05:34:20.839Z,3.50
2023-03-18T05:36:48.175Z,4.20
2023-03-18T05:39:16.097Z,3.93
2023-03-18T05:41:43.038Z,4.10
2023-03-18T05:44:10.282Z,4.20
2023-03-18T05:46:37.056Z,4.60
2023-03-18T05:49:04.332Z,4.57
2023-03-18T05:51:32.531Z,4.60
2023-03-18T05:54:00.006Z,4.20
2023-03-18T05:56:26.801Z,4.13
2023-03-18T05:58:54.856Z,4.03
2023-03-18T06:01:21.904Z,4.40
2023-03-18T06:03:49.084Z,3.90
2023-03-18T06:06:15.893Z,4.07
2023-03-18T06:08:45.146Z,4.27
2023-03-18T06:11:12.122Z,4.60
2023-03-18T06:13:39.015Z,4.20
2023-03-18T06:16:07.255Z,3.93
2023-03-18T06:18:35.148Z,4.23
2023-03-18T06:21:02.057Z,4.27
2023-03-18T06:23:29.009Z,4.13
2023-03-18T06:25:57.242Z,3.80
2023-03-18T06:28:25.056Z,4.20
2023-03-18T06:30:55.664Z,4.33
2023-03-18T06:33:22.824Z,3.97
2023-03-18T06:35:50.141Z,5.30
2023-03-18T06:38:17.759Z,4.73
2023-03-18T06:40:45.259Z,3.97
2023-03-18T06:43:14.667Z,3.73
2023-03-18T06:45:41.440Z,3.90
2023-03-18T06:48:10.360Z,4.33
2023-03-18T06:50:39.473Z,4.47
2023-03-18T06:53:06.769Z,3.73
2023-03-18T06:55:33.944Z,4.00
2023-03-18T06:58:01.254Z,3.90
2023-03-18T07:00:29.519Z,3.87
2023-03-18T07:02:56.672Z,3.80
2023-03-18T07:05:23.874Z,4.10
2023-03-18T07:07:51.339Z,3.83
2023-03-18T07:10:22.547Z,4.20
2023-03-18T07:12:50.519Z,3.77
2023-03-18T07:15:19.873Z,4.00
2023-03-18T07:17:48.933Z,3.97
2023-03-18T07:20:16.594Z,3.77
2023-03-18T07:22:45.813Z,4.03
2023-03-18T07:25:13.300Z,3.83
2023-03-18T07:27:40.862Z,4.10
2023-03-18T07:30:11.668Z,3.87
2023-03-18T07:32:38.917Z,3.97
2023-03-18T07:35:10.699Z,4.37
2023-03-18T07:37:37.553Z,4.07
2023-03-18T07:40:05.593Z,4.07
2023-03-18T07:42:34.082Z,3.77
2023-03-18T07:45:01.399Z,3.50
2023-03-18T07:47:28.909Z,2.83
2023-03-18T07:49:55.897Z,2.80
2023-03-18T07:52:24.866Z,3.10
2023-03-18T07:54:52.328Z,2.90
2023-03-18T07:57:19.390Z,2.90
2023-03-18T07:59:46.597Z,2.87
2023-03-18T08:02:14.706Z,3.00
2023-03-18T08:04:42.700Z,2.60
2023-03-18T08:07:10.394Z,2.70
2023-03-18T08:09:38.755Z,2.83
2023-03-18T08:12:06.408Z,2.60
2023-03-18T08:14:33.258Z,2.83
2023-03-18T08:17:00.384Z,2.73
2023-03-18T08:19:27.447Z,2.70
2023-03-18T08:21:56.059Z,2.80
2023-03-18T08:24:24.425Z,2.97
2023-03-18T08:26:53.535Z,3.30
2023-03-18T08:29:20.320Z,3.10
2023-03-18T08:31:47.649Z,3.10
2023-03-18T08:34:14.467Z,2.90
2023-03-18T08:36:42.717Z,2.87
2023-03-18T08:39:11.123Z,3.40
2023-03-18T08:41:38.933Z,2.97
2023-03-18T08:44:08.401Z,2.77
2023-03-18T08:46:35.330Z,2.80
2023-03-18T08:49:02.228Z,3.27
2023-03-18T08:51:29.632Z,3.13
2023-03-18T08:53:56.619Z,3.07
2023-03-18T08:56:24.384Z,3.30
2023-03-18T08:58:51.197Z,3.10
2023-03-18T09:01:22.676Z,2.77
2023-03-18T09:03:49.749Z,2.93
2023-03-18T09:06:18.186Z,2.90
2023-03-18T09:08:45.165Z,3.23
2023-03-18T09:11:13.880Z,3.27
2023-03-18T09:13:41.119Z,3.80
2023-03-18T09:16:08.762Z,3.07
2023-03-18T09:18:37.094Z,3.17
2023-03-18T09:21:05.005Z,3.60
2023-03-18T09:23:32.492Z,4.00
2023-03-18T09:26:00.117Z,4.10
2023-03-18T09:28:27.331Z,4.10
2023-03-18T09:30:54.315Z,4.20
2023-03-18T09:33:22.156Z,4.00
2023-03-18T09:35:51.087Z,4.10
2023-03-18T09:38:20.033Z,4.50
2023-03-18T09:40:56.314Z,4.10
2023-03-18T09:43:37.767Z,4.33
2023-03-18T09:46:12.130Z,4.57
2023-03-18T09:48:54.124Z,4.10
2023-03-18T09:51:35.018Z,4.80
2023-03-18T09:54:08.312Z,4.90
2023-03-18T09:56:38.099Z,5.40
2023-03-18T09:59:12.454Z,4.93
2023-03-18T10:01:41.172Z,5.23
2023-03-18T10:04:16.043Z,5.73
2023-03-18T10:06:47.486Z,5.27
2023-03-18T10:09:19.293Z,6.77
2023-03-18T10:11:49.982Z,6.10
2023-03-18T10:14:30.794Z,6.10
2023-03-18T10:17:09.675Z,6.10
2023-03-18T10:19:37.688Z,5.40
2023-03-18T10:22:22.434Z,6.57
2023-03-18T10:24:56.917Z,6.67
2023-03-18T10:27:38.699Z,6.47
2023-03-18T10:30:34.179Z,5.87
2023-03-18T10:33:10.719Z,5.83
2023-03-18T10:35:42.221Z,5.43
2023-03-18T10:38:18.293Z,4.50
2023-03-18T10:40:47.767Z,5.23
2023-03-18T10:43:19.719Z,4.50
2023-03-18T10:45:48.968Z,4.03
2023-03-18T10:48:21.671Z,4.23
2023-03-18T10:50:56.916Z,4.13
2023-03-18T10:53:29.241Z,3.30
2023-03-18T10:56:02.487Z,3.70
2023-03-18T10:58:29.428Z,3.43
2023-03-18T11:00:56.870Z,3.37
2023-03-18T11:03:27.461Z,3.53
2023-03-18T11:05:56.535Z,3.83
2023-03-18T11:08:35.208Z,3.10
2023-03-18T11:11:19.706Z,3.37
2023-03-18T11:13:48.281Z,3.30
2023-03-18T11:16:26.025Z,3.50
2023-03-18T11:18:53.339Z,3.13
2023-03-18T11:21:20.613Z,3.63
2023-03-18T11:24:09.083Z,3.07
2023-03-18T11:26:48.691Z,3.07
2023-03-18T11:29:24.218Z,3.00
2023-03-18T11:31:58.054Z,3.07
2023-03-18T11:34:26.556Z,3.13
2023-03-18T11:37:00.940Z,3.17
2023-03-18T11:39:34.042Z,3.40
2023-03-18T11:42:01.516Z,2.83
2023-03-18T11:44:31.337Z,2.50
2023-03-18T11:47:04.369Z,2.40
2023-03-18T11:49:32.120Z,2.67
2023-03-18T11:52:19.258Z,3.17
2023-03-18T11:55:03.689Z,2.67
2023-03-18T11:57:40.512Z,2.72
2023-03-18T12:00:19.151Z,2.50
2023-03-18T12:03:20.577Z,2.90
2023-03-18T12:05:59.376Z,2.35
2023-03-18T12:08:37.669Z,2.25
2023-03-18T12:11:14.213Z,2.28
2023-03-18T12:13:52.533Z,2.03
2023-03-18T12:16:29.277Z,1.98
2023-03-18T12:19:11.607Z,2.00
2023-03-18T12:21:56.201Z,2.25
2023-03-18T12:24:54.458Z,2.10
2023-03-18T12:27:32.831Z,2.00
2023-03-18T12:30:19.796Z,3.30
2023-03-18T12:32:54.349Z,1.98
2023-03-18T12:35:35.431Z,1.88
2023-03-18T12:38:31.593Z,2.20
2023-03-18T12:41:06.858Z,2.55
2023-03-18T12:43:51.577Z,1.80
2023-03-18T12:46:26.032Z,1.80
2023-03-18T12:48:59.149Z,1.88
2023-03-18T12:51:30.473Z,2.47
2023-03-18T12:54:03.268Z,1.83
2023-03-18T12:56:31.328Z,2.00
2023-03-18T12:59:07.143Z,1.83
2023-03-18T13:01:40.920Z,2.03
2023-03-18T13:04:12.018Z,1.90
2023-03-18T13:06:42.892Z,1.90
2023-03-18T13:09:16.015Z,1.90
2023-03-18T13:11:54.746Z,2.10
2023-03-18T13:14:29.771Z,2.30
2023-03-18T13:16:58.708Z,2.30
2023-03-18T13:19:25.709Z,1.70
2023-03-18T13:22:01.823Z,1.90
2023-03-18T13:24:40.718Z,1.90
2023-03-18T13:27:33.709Z,1.60
2023-03-18T13:30:11.457Z,1.58
2023-03-18T13:33:09.600Z,1.70
2023-03-18T13:36:04.261Z,1.88
2023-03-18T13:39:14.180Z,1.50
2023-03-18T13:42:13.302Z,1.90
2023-03-18T13:44:46.503Z,1.80
2023-03-18T13:47:21.586Z,1.50
2023-03-18T13:50:00.138Z,1.70
2023-03-18T13:52:35.092Z,1.67
2023-03-18T13:55:05.530Z,1.75
2023-03-18T13:57:46.944Z,1.70
2023-03-18T14:00:25.847Z,1.70
2023-03-18T14:03:16.332Z,1.70
2023-03-18T14:05:44.371Z,1.60
2023-03-18T14:08:44.516Z,1.73
2023-03-18T14:11:47.990Z,1.67
2023-03-18T14:14:48.910Z,1.60
2023-03-18T14:17:25.487Z,1.80
2023-03-18T14:19:57.479Z,1.80
2023-03-18T14:22:33.720Z,1.70
2023-03-18T14:25:39.557Z,1.50
2023-03-18T14:28:20.538Z,1.67
2023-03-18T14:30:54.679Z,1.90
2023-03-18T14:33:36.305Z,1.75
2023-03-18T14:36:10.383Z,1.98
2023-03-18T14:38:49.532Z,2.05
2023-03-18T14:41:24.711Z,2.30
2023-03-18T14:44:21.646Z,1.85
2023-03-18T14:46:52.047Z,1.83
2023-03-18T14:49:33.452Z,1.90
2023-03-18T14:52:04.475Z,1.92
2023-03-18T14:54:38.233Z,1.70
2023-03-18T14:57:05.684Z,2.03
2023-03-18T14:59:33.014Z,2.00
2023-03-18T15:02:03.601Z,3.13
2023-03-18T15:04:30.744Z,1.95
2023-03-18T15:07:05.402Z,2.22
2023-03-18T15:09:35.873Z,2.30
2023-03-18T15:12:17.281Z,1.80
2023-03-18T15:14:44.234Z,1.75
2023-03-18T15:17:17.026Z,1.92
2023-03-18T15:19:44.223Z,1.90
2023-03-18T15:22:21.079Z,1.80
2023-03-18T15:24:48.197Z,1.80
2023-03-18T15:27:19.132Z,1.60
2023-03-18T15:29:52.797Z,1.92
2023-03-18T15:32:23.852Z,1.60
2023-03-18T15:34:55.059Z,1.40
2023-03-18T15:37:45.579Z,1.42
2023-03-18T15:40:31.626Z,1.75
2023-03-18T15:43:05.587Z,2.00
2023-03-18T15:45:34.035Z,1.80
2023-03-18T15:48:08.840Z,1.60
2023-03-18T15:50:37.013Z,1.60
2023-03-18T15:53:21.820Z,1.70
2023-03-18T15:55:52.275Z,1.92
2023-03-18T15:58:25.769Z,2.05
2023-03-18T16:00:54.744Z,1.95
2023-03-18T16:03:23.926Z,1.75
2023-03-18T16:05:52.616Z,1.83
2023-03-18T16:08:22.803Z,1.70
2023-03-18T16:10:51.630Z,1.70
2023-03-18T16:13:26.106Z,1.83
2023-03-18T16:15:53.900Z,1.73
2023-03-18T16:18:21.342Z,2.10
2023-03-18T16:20:49.179Z,1.80
2023-03-18T16:23:17.785Z,1.98
2023-03-18T16:25:48.406Z,2.15
2023-03-18T16:28:21.341Z,2.45
2023-03-18T16:30:50.008Z,2.13
2023-03-18T16:33:18.234Z,2.03
2023-03-18T16:35:49.010Z,1.80
2023-03-18T16:38:18.049Z,2.10
2023-03-18T16:40:46.726Z,3.30
2023-03-18T16:43:17.869Z,2.63
2023-03-18T16:45:45.400Z,2.67
2023-03-18T16:48:16.983Z,2.70
2023-03-18T16:50:47.352Z,2.53
2023-03-18T16:53:20.517Z,4.20
2023-03-18T16:55:50.724Z,4.35
2023-03-18T16:58:22.679Z,2.80
2023-03-18T17:00:49.776Z,2.00
2023-03-18T17:03:18.827Z,2.30
2023-03-18T17:05:47.739Z,2.00
2023-03-18T17:08:14.862Z,1.80
2023-03-18T17:10:43.241Z,2.10
2023-03-18T17:13:17.846Z,2.10
2023-03-18T17:15:45.058Z,2.37
2023-03-18T17:18:15.641Z,2.40
2023-03-18T17:20:44.119Z,2.10
2023-03-18T17:23:16.525Z,2.13
2023-03-18T17:25:48.311Z,2.20
2023-03-18T17:28:27.145Z,2.07
2023-03-18T17:30:54.936Z,2.20
2023-03-18T17:33:25.611Z,2.60
2023-03-18T17:35:53.109Z,2.17
2023-03-18T17:38:20.654Z,2.50
2023-03-18T17:40:51.631Z,3.27
2023-03-18T17:43:26.566Z,3.87
2023-03-18T17:45:54.129Z,3.70
2023-03-18T17:48:23.116Z,5.50
2023-03-18T17:50:52.977Z,4.07
2023-03-18T17:53:26.538Z,4.13
2023-03-18T17:55:54.705Z,3.60
2023-03-18T17:58:24.630Z,4.47
2023-03-18T18:00:53.835Z,4.03
2023-03-18T18:03:24.845Z,4.10
2023-03-18T18:05:52.501Z,3.67
2023-03-18T18:08:20.555Z,3.87
2023-03-18T18:10:48.231Z,3.23
2023-03-18T18:13:17.057Z,3.80
2023-03-18T18:15:46.225Z,3.67
2023-03-18T18:18:23.010Z,3.70
2023-03-18T18:20:53.860Z,4.00
2023-03-18T18:23:25.301Z,30.53
2023-03-18T18:25:52.976Z,32.73
2023-03-18T18:28:22.015Z,54.80
2023-03-18T18:30:50.258Z,29.63
2023-03-18T18:33:17.690Z,8.70
2023-03-18T18:35:44.622Z,5.60
2023-03-18T18:38:13.033Z,6.13
2023-03-18T18:40:40.631Z,5.40
2023-03-18T18:43:08.708Z,6.80
2023-03-18T18:45:36.227Z,6.70
2023-03-18T18:48:11.309Z,5.30
2023-03-18T18:50:39.825Z,5.27
2023-03-18T18:53:15.064Z,5.73
2023-03-18T18:55:42.177Z,5.17
2023-03-18T18:58:16.951Z,5.30
2023-03-18T19:00:44.099Z,6.40
2023-03-18T19:03:16.253Z,13.53
2023-03-18T19:05:45.896Z,9.53
2023-03-18T19:08:25.382Z,7.90
2023-03-18T19:10:53.920Z,7.70
2023-03-18T19:13:21.153Z,8.93
2023-03-18T19:15:48.741Z,9.50
2023-03-18T19:18:22.241Z,9.40
2023-03-18T19:20:49.789Z,9.63
2023-03-18T19:23:25.902Z,12.33
2023-03-18T19:25:53.351Z,13.37
2023-03-18T19:28:31.414Z,12.70
2023-03-18T19:30:58.816Z,12.00
2023-03-18T19:33:27.114Z,12.43
2023-03-18T19:35:54.011Z,13.10
2023-03-18T19:38:21.646Z,9.67
2023-03-18T19:40:49.890Z,8.90
2023-03-18T19:43:19.066Z,11.27
2023-03-18T19:45:49.230Z,15.67
2023-03-18T19:48:20.317Z,21.07
2023-03-18T19:50:48.560Z,14.70
2023-03-18T19:53:17.349Z,10.07
2023-03-18T19:55:45.577Z,17.07
2023-03-18T19:58:19.632Z,18.57
2023-03-18T20:00:47.524Z,19.97
2023-03-18T20:03:17.124Z,11.17
2023-03-18T20:05:44.022Z,11.13
2023-03-18T20:08:12.495Z,10.80
2023-03-18T20:10:40.241Z,9.27
2023-03-18T20:13:10.595Z,9.37
2023-03-18T20:15:37.412Z,7.93
2023-03-18T20:18:13.700Z,8.07
2023-03-18T20:20:42.939Z,7.23
2023-03-18T20:23:17.899Z,8.20
2023-03-18T20:25:46.426Z,9.43
2023-03-18T20:28:17.246Z,10.60
2023-03-18T20:30:45.657Z,13.37
2023-03-18T20:33:12.737Z,12.13
2023-03-18T20:35:42.484Z,9.87
2023-03-18T20:38:16.303Z,9.50
2023-03-18T20:40:47.493Z,10.23
2023-03-18T20:43:15.647Z,9.50
2023-03-18T20:45:42.666Z,10.70
2023-03-18T20:48:09.730Z,14.33
2023-03-18T20:50:36.991Z,10.27
2023-03-18T20:53:05.432Z,9.80
2023-03-18T20:55:35.805Z,19.63
2023-03-18T20:58:03.385Z,15.47
2023-03-18T21:00:32.988Z,8.40
2023-03-18T21:03:02.496Z,6.60
2023-03-18T21:05:29.345Z,12.80
2023-03-18T21:07:56.591Z,11.50
2023-03-18T21:10:25.068Z,8.60
2023-03-18T21:12:54.315Z,8.07
2023-03-18T21:15:23.590Z,14.93
2023-03-18T21:17:50.760Z,11.23
2023-03-18T21:20:22.464Z,8.77
2023-03-18T21:22:51.534Z,7.10
2023-03-18T21:25:21.175Z,7.10
2023-03-18T21:27:48.865Z,6.60
2023-03-18T21:30:18.702Z,5.93
2023-03-18T21:32:46.311Z,7.50
2023-03-18T21:35:19.009Z,6.80
2023-03-18T21:37:45.978Z,6.97
2023-03-18T21:40:18.330Z,8.37
2023-03-18T21:42:46.797Z,7.53
2023-03-18T21:45:15.617Z,7.50
2023-03-18T21:47:44.238Z,8.00
2023-03-18T21:50:19.942Z,9.07
2023-03-18T21:52:48.077Z,9.77
2023-03-18T21:55:15.594Z,9.97
2023-03-18T21:57:44.008Z,13.00
2023-03-18T22:00:17.318Z,12.90
2023-03-18T22:02:45.895Z,12.73
2023-03-18T22:05:15.165Z,12.23
2023-03-18T22:07:42.633Z,11.50
2023-03-18T22:10:14.080Z,11.93
2023-03-18T22:12:41.133Z,10.93
2023-03-18T22:15:34.346Z,12.13
2023-03-18T22:18:03.193Z,11.80
2023-03-18T22:20:30.023Z,10.43
2023-03-18T22:22:58.033Z,10.77
2023-03-18T22:25:28.975Z,10.50
2023-03-18T22:27:56.439Z,10.03
2023-03-18T22:30:24.125Z,12.87
2023-03-18T22:32:52.151Z,10.57
2023-03-18T22:35:22.934Z,9.63
2023-03-18T22:37:51.268Z,9.37
2023-03-18T22:40:20.800Z,10.43
2023-03-18T22:42:49.255Z,9.80
2023-03-18T22:45:21.676Z,9.97
2023-03-18T22:47:49.249Z,9.60
2023-03-18T22:50:16.825Z,9.30
2023-03-18T22:52:46.467Z,9.73
2023-03-18T22:55:19.772Z,9.77
2023-03-18T22:57:47.228Z,9.40
2023-03-18T23:00:25.665Z,9.93
2023-03-18T23:02:53.577Z,10.07
2023-03-18T23:05:23.451Z,9.60
2023-03-18T23:07:52.916Z,10.57
2023-03-18T23:10:20.730Z,10.43
2023-03-18T23:12:48.449Z,9.53
2023-03-18T23:15:17.477Z,9.97
2023-03-18T23:17:45.518Z,10.37
2023-03-18T23:20:14.076Z,10.93
2023-03-18T23:22:42.211Z,11.37
2023-03-18T23:25:13.932Z,10.27
2023-03-18T23:27:41.345Z,11.03
2023-03-18T23:30:09.743Z,10.70
2023-03-18T23:32:37.478Z,10.53
2023-03-18T23:35:06.115Z,10.20
2023-03-18T23:37:33.362Z,10.63
2023-03-18T23:40:00.176Z,10.87
2023-03-18T23:42:28.657Z,12.53
2023-03-18T23:44:55.539Z,10.83
2023-03-18T23:47:22.645Z,10.37
2023-03-18T23:49:49.475Z,10.67
2023-03-18T23:52:16.990Z,9.80
2023-03-18T23:54:43.794Z,9.60
2023-03-18T23:57:12.254Z,9.27
2023-03-18T23:59:41.927Z,9.23
